createdAt,value
2022-12-25T00:00:44.410Z,2.15
2022-12-25T00:01:44.412Z,2.18
2022-12-25T00:02:44.586Z,2.14
2022-12-25T00:03:44.535Z,2.14
2022-12-25T00:04:44.355Z,2.13
2022-12-25T00:05:44.412Z,2.11
2022-12-25T00:06:44.332Z,2.10
2022-12-25T00:07:44.327Z,2.08
2022-12-25T00:08:44.372Z,2.10
2022-12-25T00:09:44.304Z,2.10
2022-12-25T00:10:45.604Z,2.13
2022-12-25T00:11:44.320Z,2.11
2022-12-25T00:12:44.282Z,2.10
2022-12-25T00:13:44.324Z,2.13
2022-12-25T00:14:44.249Z,2.14
2022-12-25T00:15:44.265Z,2.17
2022-12-25T00:16:44.315Z,2.18
2022-12-25T00:17:44.247Z,2.22
2022-12-25T00:18:44.218Z,2.25
2022-12-25T00:19:44.263Z,2.29
2022-12-25T00:20:44.201Z,2.33
2022-12-25T00:21:44.195Z,2.36
2022-12-25T00:22:44.202Z,2.42
2022-12-25T00:23:44.161Z,2.43
2022-12-25T00:24:44.198Z,2.46
2022-12-25T00:25:44.147Z,2.47
2022-12-25T00:26:44.166Z,2.51
2022-12-25T00:27:44.130Z,2.56
2022-12-25T00:28:44.145Z,2.57
2022-12-25T00:29:44.105Z,2.57
2022-12-25T00:30:44.140Z,2.62
2022-12-25T00:31:44.257Z,2.64
2022-12-25T00:32:44.079Z,2.65
2022-12-25T00:33:44.072Z,2.68
2022-12-25T00:34:44.103Z,2.69
2022-12-25T00:35:44.085Z,2.71
2022-12-25T00:36:44.028Z,2.72
2022-12-25T00:37:44.053Z,2.74
2022-12-25T00:38:44.022Z,2.74
2022-12-25T00:39:44.038Z,2.74
2022-12-25T00:40:44.091Z,2.77
2022-12-25T00:41:44.027Z,2.77
2022-12-25T00:42:43.996Z,2.80
2022-12-25T00:43:43.955Z,2.83
2022-12-25T00:44:43.971Z,2.87
2022-12-25T00:45:43.965Z,2.87
2022-12-25T00:46:43.992Z,2.95
2022-12-25T00:47:43.951Z,2.97
2022-12-25T00:48:43.937Z,3.00
2022-12-25T00:49:43.915Z,3.01
2022-12-25T00:50:43.936Z,3.05
2022-12-25T00:51:43.888Z,3.05
2022-12-25T00:52:43.904Z,3.07
2022-12-25T00:53:43.897Z,3.13
2022-12-25T00:54:43.873Z,3.14
2022-12-25T00:55:43.841Z,3.19
2022-12-25T00:56:43.848Z,3.19
2022-12-25T00:57:43.883Z,3.26
2022-12-25T00:58:43.811Z,3.29
2022-12-25T00:59:43.804Z,3.31
2022-12-25T01:00:43.894Z,3.34
2022-12-25T01:01:43.963Z,3.37
2022-12-25T01:02:43.928Z,3.41
2022-12-25T01:03:43.924Z,3.42
2022-12-25T01:04:43.801Z,3.44
2022-12-25T01:05:43.739Z,3.47
2022-12-25T01:06:43.738Z,3.53
2022-12-25T01:07:43.786Z,3.55
2022-12-25T01:08:43.740Z,3.59
2022-12-25T01:09:43.687Z,3.59
2022-12-25T01:10:43.706Z,3.60
2022-12-25T01:11:43.673Z,3.62
2022-12-25T01:12:43.701Z,3.65
2022-12-25T01:13:43.662Z,3.66
2022-12-25T01:14:43.666Z,3.69
2022-12-25T01:15:43.636Z,3.73
2022-12-25T01:16:43.766Z,3.74
2022-12-25T01:17:43.678Z,3.78
2022-12-25T01:18:43.621Z,3.83
2022-12-25T01:19:43.652Z,3.86
2022-12-25T01:20:43.591Z,3.91
2022-12-25T01:21:43.576Z,3.95
2022-12-25T01:22:43.653Z,3.96
2022-12-25T01:23:43.563Z,3.99
2022-12-25T01:24:43.560Z,4.02
2022-12-25T01:25:43.648Z,4.04
2022-12-25T01:26:43.545Z,4.05
2022-12-25T01:27:43.542Z,4.06
2022-12-25T01:28:43.533Z,4.12
2022-12-25T01:29:43.498Z,4.13
2022-12-25T01:30:43.503Z,4.12
2022-12-25T01:31:43.509Z,4.16
2022-12-25T01:32:43.480Z,4.14
2022-12-25T01:33:43.464Z,4.16
2022-12-25T01:34:43.479Z,4.17
2022-12-25T01:35:43.465Z,4.20
2022-12-25T01:36:43.483Z,4.22
2022-12-25T01:37:43.417Z,4.24
2022-12-25T01:38:43.412Z,4.26
2022-12-25T01:39:43.406Z,4.31
2022-12-25T01:40:43.395Z,4.34
2022-12-25T01:41:43.393Z,4.37
2022-12-25T01:42:43.374Z,4.40
2022-12-25T01:43:43.348Z,4.42
2022-12-25T01:44:43.353Z,4.44
2022-12-25T01:45:43.441Z,4.45
2022-12-25T01:46:43.344Z,4.49
2022-12-25T01:47:43.325Z,4.49
2022-12-25T01:48:43.319Z,4.50
2022-12-25T01:49:43.318Z,4.48
2022-12-25T01:50:43.331Z,4.49
2022-12-25T01:51:43.291Z,4.52
2022-12-25T01:52:43.278Z,4.52
2022-12-25T01:53:43.271Z,4.52
2022-12-25T01:54:43.263Z,4.55
2022-12-25T01:55:43.264Z,4.59
2022-12-25T01:56:43.227Z,4.59
2022-12-25T01:57:43.229Z,4.59
2022-12-25T01:58:43.221Z,4.62
2022-12-25T01:59:43.242Z,4.66
2022-12-25T02:00:43.275Z,4.68
2022-12-25T02:01:43.317Z,4.71
2022-12-25T02:02:43.262Z,4.74
2022-12-25T02:03:43.203Z,4.74
2022-12-25T02:04:43.232Z,4.74
2022-12-25T02:05:43.138Z,4.78
2022-12-25T02:06:43.186Z,4.78
2022-12-25T02:07:43.116Z,4.77
2022-12-25T02:08:43.116Z,4.80
2022-12-25T02:09:43.083Z,4.80
2022-12-25T02:10:43.097Z,4.80
2022-12-25T02:11:43.120Z,4.84
2022-12-25T02:12:43.072Z,4.84
2022-12-25T02:13:43.103Z,4.86
2022-12-25T02:14:43.125Z,4.84
2022-12-25T02:15:43.099Z,4.86
2022-12-25T02:16:56.706Z,4.86
2022-12-25T02:17:43.068Z,4.86
2022-12-25T02:18:43.021Z,4.86
2022-12-25T02:19:43.027Z,4.87
2022-12-25T02:20:43.071Z,4.90
2022-12-25T02:21:42.989Z,4.93
2022-12-25T02:22:43.012Z,4.96
2022-12-25T02:23:43.001Z,4.96
2022-12-25T02:24:42.939Z,4.97
2022-12-25T02:25:42.937Z,4.99
2022-12-25T02:26:43.179Z,5.00
2022-12-25T02:27:42.970Z,5.04
2022-12-25T02:28:45.718Z,5.05
2022-12-25T02:29:42.984Z,5.11
2022-12-25T02:30:42.882Z,5.12
2022-12-25T02:31:42.965Z,5.15
2022-12-25T02:32:42.902Z,5.15
2022-12-25T02:33:42.955Z,5.18
2022-12-25T02:34:42.877Z,5.18
2022-12-25T02:35:42.837Z,5.18
2022-12-25T02:36:42.860Z,5.21
2022-12-25T02:37:42.811Z,5.21
2022-12-25T02:38:42.838Z,5.21
2022-12-25T02:39:42.852Z,5.25
2022-12-25T02:40:42.809Z,5.26
2022-12-25T02:41:42.761Z,5.28
2022-12-25T02:42:42.871Z,5.28
2022-12-25T02:43:42.751Z,5.30
2022-12-25T02:44:42.757Z,5.32
2022-12-25T02:45:42.811Z,5.33
2022-12-25T02:46:42.778Z,5.35
2022-12-25T02:47:42.740Z,5.35
2022-12-25T02:48:42.698Z,5.36
2022-12-25T02:49:42.686Z,5.39
2022-12-25T02:50:42.752Z,5.38
2022-12-25T02:51:42.690Z,5.41
2022-12-25T02:52:42.673Z,5.43
2022-12-25T02:53:42.705Z,5.44
2022-12-25T02:54:42.673Z,5.44
2022-12-25T02:55:42.646Z,5.46
2022-12-25T02:56:42.655Z,5.46
2022-12-25T02:57:42.601Z,5.47
2022-12-25T02:58:42.624Z,5.48
2022-12-25T02:59:42.627Z,5.48
2022-12-25T03:00:42.602Z,5.48
2022-12-25T03:01:42.847Z,5.50
2022-12-25T03:02:42.640Z,5.53
2022-12-25T03:03:42.566Z,5.56
2022-12-25T03:04:42.549Z,5.57
2022-12-25T03:05:42.534Z,5.59
2022-12-25T03:06:42.541Z,5.62
2022-12-25T03:07:42.526Z,5.65
2022-12-25T03:08:42.518Z,5.64
2022-12-25T03:09:42.554Z,5.65
2022-12-25T03:10:42.481Z,5.66
2022-12-25T03:11:42.484Z,5.66
2022-12-25T03:12:42.466Z,5.68
2022-12-25T03:13:42.442Z,5.68
2022-12-25T03:14:42.463Z,5.68
2022-12-25T03:15:42.455Z,5.69
2022-12-25T03:16:42.496Z,5.72
2022-12-25T03:17:42.409Z,5.73
2022-12-25T03:18:42.485Z,5.73
2022-12-25T03:19:42.383Z,5.75
2022-12-25T03:20:42.376Z,5.76
2022-12-25T03:21:42.371Z,5.79
2022-12-25T03:22:42.429Z,5.80
2022-12-25T03:23:42.349Z,5.83
2022-12-25T03:24:42.366Z,5.84
2022-12-25T03:25:42.329Z,5.91
2022-12-25T03:26:42.327Z,5.91
2022-12-25T03:27:42.330Z,5.93
2022-12-25T03:28:42.341Z,5.98
2022-12-25T03:29:42.287Z,6.02
2022-12-25T03:30:42.323Z,6.01
2022-12-25T03:31:42.399Z,6.05
2022-12-25T03:32:42.292Z,6.07
2022-12-25T03:33:45.949Z,6.11
2022-12-25T03:34:42.230Z,6.12
2022-12-25T03:35:42.235Z,6.12
2022-12-25T03:36:42.280Z,6.16
2022-12-25T03:37:42.199Z,6.17
2022-12-25T03:38:42.251Z,6.17
2022-12-25T03:39:42.244Z,6.17
2022-12-25T03:40:42.181Z,6.19
2022-12-25T03:41:42.245Z,6.20
2022-12-25T03:42:42.192Z,6.20
2022-12-25T03:43:42.146Z,6.22
2022-12-25T03:44:42.171Z,6.26
2022-12-25T03:45:42.142Z,6.27
2022-12-25T03:46:42.173Z,6.31
2022-12-25T03:47:42.115Z,6.33
2022-12-25T03:48:42.099Z,6.35
2022-12-25T03:49:42.155Z,6.38
2022-12-25T03:50:42.098Z,6.39
2022-12-25T03:51:42.057Z,6.41
2022-12-25T03:52:42.080Z,6.45
2022-12-25T03:53:42.072Z,6.46
2022-12-25T03:54:42.070Z,6.52
2022-12-25T03:55:42.057Z,6.54
2022-12-25T03:56:42.038Z,6.59
2022-12-25T03:57:42.019Z,6.62
2022-12-25T03:58:42.001Z,6.66
2022-12-25T03:59:41.992Z,6.67
2022-12-25T04:00:41.970Z,6.69
2022-12-25T04:01:42.114Z,6.69
2022-12-25T04:02:42.196Z,6.70
2022-12-25T04:03:42.054Z,6.70
2022-12-25T04:04:41.933Z,6.69
2022-12-25T04:05:41.974Z,6.70
2022-12-25T04:06:41.983Z,6.70
2022-12-25T04:07:41.946Z,6.74
2022-12-25T04:08:41.902Z,6.77
2022-12-25T04:09:41.985Z,6.78
2022-12-25T04:10:41.923Z,6.82
2022-12-25T04:11:41.849Z,6.82
2022-12-25T04:12:41.861Z,6.84
2022-12-25T04:13:41.849Z,6.85
2022-12-25T04:14:41.848Z,6.89
2022-12-25T04:15:41.878Z,6.92
2022-12-25T04:16:41.822Z,6.93
2022-12-25T04:17:41.879Z,6.96
2022-12-25T04:18:41.855Z,6.99
2022-12-25T04:19:41.774Z,7.02
2022-12-25T04:20:41.776Z,7.06
2022-12-25T04:21:41.805Z,7.10
2022-12-25T04:22:41.752Z,7.13
2022-12-25T04:23:41.744Z,7.14
2022-12-25T04:24:41.759Z,7.15
2022-12-25T04:25:41.707Z,7.17
2022-12-25T04:26:41.735Z,7.17
2022-12-25T04:27:41.758Z,7.18
2022-12-25T04:28:41.741Z,7.18
2022-12-25T04:29:41.677Z,7.17
2022-12-25T04:30:41.685Z,7.18
2022-12-25T04:31:41.695Z,7.21
2022-12-25T04:32:41.671Z,7.20
2022-12-25T04:33:41.680Z,7.21
2022-12-25T04:34:41.681Z,7.21
2022-12-25T04:35:41.622Z,7.21
2022-12-25T04:36:41.618Z,7.21
2022-12-25T04:37:41.651Z,7.23
2022-12-25T04:38:41.597Z,7.23
2022-12-25T04:39:41.594Z,7.21
2022-12-25T04:40:41.633Z,7.21
2022-12-25T04:41:41.582Z,7.23
2022-12-25T04:42:41.573Z,7.24
2022-12-25T04:43:41.545Z,7.23
2022-12-25T04:44:41.532Z,7.24
2022-12-25T04:45:41.520Z,7.24
2022-12-25T04:46:41.571Z,7.25
2022-12-25T04:47:41.533Z,7.31
2022-12-25T04:48:41.474Z,7.35
2022-12-25T04:49:41.458Z,7.35
2022-12-25T04:50:41.535Z,7.33
2022-12-25T04:51:41.443Z,7.35
2022-12-25T04:52:41.446Z,7.32
2022-12-25T04:53:41.435Z,7.32
2022-12-25T04:54:41.483Z,7.31
2022-12-25T04:55:41.436Z,7.29
2022-12-25T04:56:45.501Z,7.28
2022-12-25T04:57:41.456Z,7.24
2022-12-25T04:58:41.390Z,7.20
2022-12-25T04:59:41.393Z,7.20
2022-12-25T05:00:41.358Z,7.17
2022-12-25T05:01:41.501Z,7.13
2022-12-25T05:02:41.528Z,7.11
2022-12-25T05:03:41.495Z,7.03
2022-12-25T05:04:41.360Z,6.97
2022-12-25T05:05:41.329Z,6.93
2022-12-25T05:06:41.355Z,6.84
2022-12-25T05:07:41.298Z,6.78
2022-12-25T05:08:41.337Z,6.74
2022-12-25T05:09:41.298Z,6.70
2022-12-25T05:10:41.282Z,6.67
2022-12-25T05:11:41.259Z,6.63
2022-12-25T05:12:41.245Z,6.59
2022-12-25T05:13:41.298Z,6.54
2022-12-25T05:14:41.232Z,6.49
2022-12-25T05:15:41.260Z,6.44
2022-12-25T05:16:41.245Z,6.36
2022-12-25T05:17:41.220Z,6.30
2022-12-25T05:18:41.166Z,6.22
2022-12-25T05:19:41.189Z,6.12
2022-12-25T05:20:41.158Z,6.04
2022-12-25T05:21:41.154Z,5.97
2022-12-25T05:22:41.150Z,5.90
2022-12-25T05:23:41.123Z,5.86
2022-12-25T05:24:41.157Z,5.76
2022-12-25T05:25:41.110Z,5.71
2022-12-25T05:26:41.128Z,5.65
2022-12-25T05:27:41.119Z,5.57
2022-12-25T05:28:41.100Z,5.56
2022-12-25T05:29:41.093Z,5.53
2022-12-25T05:30:41.060Z,5.47
2022-12-25T05:31:41.093Z,5.44
2022-12-25T05:32:41.032Z,5.38
2022-12-25T05:33:41.038Z,5.32
2022-12-25T05:34:41.079Z,5.26
2022-12-25T05:35:41.059Z,5.20
2022-12-25T05:36:41.002Z,5.12
2022-12-25T05:37:41.006Z,5.08
2022-12-25T05:38:41.014Z,5.02
2022-12-25T05:39:41.038Z,5.00
2022-12-25T05:40:40.964Z,4.99
2022-12-25T05:41:40.964Z,4.97
2022-12-25T05:42:40.963Z,4.96
2022-12-25T05:43:40.977Z,4.94
2022-12-25T05:44:40.904Z,4.90
2022-12-25T05:45:40.953Z,4.87
2022-12-25T05:46:40.966Z,4.86
2022-12-25T05:47:40.983Z,4.84
2022-12-25T05:48:40.869Z,4.80
2022-12-25T05:49:40.886Z,4.78
2022-12-25T05:50:40.903Z,4.78
2022-12-25T05:51:40.873Z,4.78
2022-12-25T05:52:40.847Z,4.78
2022-12-25T05:53:40.852Z,4.78
2022-12-25T05:54:40.818Z,4.78
2022-12-25T05:55:40.927Z,4.77
2022-12-25T05:56:40.826Z,4.75
2022-12-25T05:57:40.827Z,4.71
2022-12-25T05:58:40.822Z,4.71
2022-12-25T05:59:40.798Z,4.67
2022-12-25T06:00:40.768Z,4.63
2022-12-25T06:01:40.946Z,4.60
2022-12-25T06:02:40.955Z,4.59
2022-12-25T06:03:40.784Z,4.56
2022-12-25T06:04:40.706Z,4.52
2022-12-25T06:05:40.770Z,4.50
2022-12-25T06:06:40.713Z,4.48
2022-12-25T06:07:40.752Z,4.50
2022-12-25T06:08:40.739Z,4.49
2022-12-25T06:09:40.665Z,4.52
2022-12-25T06:10:40.658Z,4.52
2022-12-25T06:11:40.656Z,4.53
2022-12-25T06:12:40.655Z,4.55
2022-12-25T06:13:40.646Z,4.55
2022-12-25T06:14:40.617Z,4.53
2022-12-25T06:15:40.679Z,4.53
2022-12-25T06:16:40.653Z,4.49
2022-12-25T06:17:40.593Z,4.50
2022-12-25T06:18:40.567Z,4.50
2022-12-25T06:19:40.606Z,4.50
2022-12-25T06:20:40.592Z,4.50
2022-12-25T06:21:40.541Z,4.52
2022-12-25T06:22:40.554Z,4.52
2022-12-25T06:23:40.677Z,4.53
2022-12-25T06:24:40.545Z,4.53
2022-12-25T06:25:40.538Z,4.56
2022-12-25T06:26:40.482Z,4.55
2022-12-25T06:27:40.487Z,4.55
2022-12-25T06:28:40.481Z,4.52
2022-12-25T06:29:40.504Z,4.50
2022-12-25T06:30:40.457Z,4.52
2022-12-25T06:31:40.558Z,4.50
2022-12-25T06:32:40.483Z,4.50
2022-12-25T06:33:40.424Z,4.50
2022-12-25T06:34:40.423Z,4.48
2022-12-25T06:35:40.460Z,4.48
2022-12-25T06:36:40.395Z,4.48
2022-12-25T06:37:40.399Z,4.45
2022-12-25T06:38:40.483Z,4.42
2022-12-25T06:39:40.350Z,4.42
2022-12-25T06:40:40.334Z,4.41
2022-12-25T06:41:40.342Z,4.44
2022-12-25T06:42:40.357Z,4.42
2022-12-25T06:43:40.325Z,4.41
2022-12-25T06:44:40.329Z,4.41
2022-12-25T06:45:40.312Z,4.41
2022-12-25T06:46:40.327Z,4.37
2022-12-25T06:47:40.334Z,4.38
2022-12-25T06:48:40.267Z,4.37
2022-12-25T06:49:40.296Z,4.35
2022-12-25T06:50:40.264Z,4.34
2022-12-25T06:51:40.264Z,4.34
2022-12-25T06:52:40.216Z,4.31
2022-12-25T06:53:40.998Z,4.32
2022-12-25T06:54:40.205Z,4.30
2022-12-25T06:55:40.240Z,4.30
2022-12-25T06:56:40.147Z,4.31
2022-12-25T06:57:40.183Z,4.31
2022-12-25T06:58:40.108Z,4.31
2022-12-25T06:59:40.138Z,4.32
2022-12-25T07:00:40.244Z,4.32
2022-12-25T07:01:40.331Z,4.31
2022-12-25T07:02:40.227Z,4.32
2022-12-25T07:03:40.074Z,4.32
2022-12-25T07:04:40.110Z,4.35
2022-12-25T07:05:40.049Z,4.34
2022-12-25T07:06:40.054Z,4.34
2022-12-25T07:07:40.016Z,4.34
2022-12-25T07:08:40.019Z,4.34
2022-12-25T07:09:40.032Z,4.35
2022-12-25T07:10:39.985Z,4.37
2022-12-25T07:11:40.027Z,4.38
2022-12-25T07:12:39.956Z,4.37
2022-12-25T07:13:40.001Z,4.38
2022-12-25T07:14:39.951Z,4.37
2022-12-25T07:15:39.948Z,4.38
2022-12-25T07:16:39.966Z,4.38
2022-12-25T07:17:39.929Z,4.37
2022-12-25T07:18:39.981Z,4.37
2022-12-25T07:19:44.877Z,4.37
2022-12-25T07:20:39.877Z,4.35
2022-12-25T07:21:39.881Z,4.34
2022-12-25T07:22:39.938Z,4.34
2022-12-25T07:23:39.861Z,4.31
2022-12-25T07:24:39.866Z,4.28
2022-12-25T07:25:39.834Z,4.24
2022-12-25T07:26:39.835Z,4.22
2022-12-25T07:27:39.858Z,4.23
2022-12-25T07:28:39.802Z,4.23
2022-12-25T07:29:39.822Z,4.23
2022-12-25T07:30:39.802Z,4.23
2022-12-25T07:31:39.841Z,4.28
2022-12-25T07:32:39.796Z,4.26
2022-12-25T07:33:39.775Z,4.28
2022-12-25T07:34:39.782Z,4.30
2022-12-25T07:35:39.767Z,4.31
2022-12-25T07:36:39.737Z,4.31
2022-12-25T07:37:39.728Z,4.30
2022-12-25T07:38:39.712Z,4.30
2022-12-25T07:39:39.693Z,4.30
2022-12-25T07:40:39.752Z,4.30
2022-12-25T07:41:39.705Z,4.26
2022-12-25T07:42:39.681Z,4.28
2022-12-25T07:43:39.655Z,4.26
2022-12-25T07:44:39.633Z,4.26
2022-12-25T07:45:39.775Z,4.28
2022-12-25T07:46:39.628Z,4.32
2022-12-25T07:47:39.652Z,4.37
2022-12-25T07:48:39.636Z,4.40
2022-12-25T07:49:39.594Z,4.41
2022-12-25T07:50:39.584Z,4.42
2022-12-25T07:51:39.575Z,4.41
2022-12-25T07:52:43.457Z,4.44
2022-12-25T07:53:39.577Z,4.45
2022-12-25T07:54:39.546Z,4.48
2022-12-25T07:55:39.542Z,4.52
2022-12-25T07:56:39.556Z,4.55
2022-12-25T07:57:39.551Z,4.55
2022-12-25T07:58:39.543Z,4.58
2022-12-25T07:59:39.503Z,4.55
2022-12-25T08:00:39.476Z,4.56
2022-12-25T08:01:39.652Z,4.53
2022-12-25T08:02:39.706Z,4.52
2022-12-25T08:03:39.694Z,4.50
2022-12-25T08:04:39.496Z,4.52
2022-12-25T08:05:39.421Z,4.52
2022-12-25T08:06:39.416Z,4.55
2022-12-25T08:07:39.422Z,4.55
2022-12-25T08:08:39.382Z,4.56
2022-12-25T08:09:39.385Z,4.58
2022-12-25T08:10:39.428Z,4.59
2022-12-25T08:11:39.380Z,4.62
2022-12-25T08:12:39.343Z,4.60
2022-12-25T08:13:39.430Z,4.62
2022-12-25T08:14:39.333Z,4.60
2022-12-25T08:15:39.344Z,4.60
2022-12-25T08:16:39.363Z,4.62
2022-12-25T08:17:39.295Z,4.62
2022-12-25T08:18:39.319Z,4.63
2022-12-25T08:19:39.366Z,4.63
2022-12-25T08:20:39.284Z,4.67
2022-12-25T08:21:39.333Z,4.67
2022-12-25T08:22:39.283Z,4.71
2022-12-25T08:23:39.266Z,4.73
2022-12-25T08:24:39.250Z,4.75
2022-12-25T08:25:39.245Z,4.77
2022-12-25T08:26:39.230Z,4.80
2022-12-25T08:27:39.234Z,4.87
2022-12-25T08:28:39.183Z,4.92
2022-12-25T08:29:39.210Z,4.97
2022-12-25T08:30:39.234Z,4.99
2022-12-25T08:31:45.765Z,4.97
2022-12-25T08:32:39.209Z,5.00
2022-12-25T08:33:39.192Z,4.99
2022-12-25T08:34:39.195Z,4.97
2022-12-25T08:35:39.116Z,4.99
2022-12-25T08:36:39.161Z,4.99
2022-12-25T08:37:39.139Z,5.02
2022-12-25T08:38:39.120Z,5.04
2022-12-25T08:39:39.095Z,5.05
2022-12-25T08:40:39.117Z,5.05
2022-12-25T08:41:39.054Z,5.08
2022-12-25T08:42:39.070Z,5.08
2022-12-25T08:43:39.091Z,5.11
2022-12-25T08:44:39.024Z,5.12
2022-12-25T08:45:39.050Z,5.11
2022-12-25T08:46:39.001Z,5.11
2022-12-25T08:47:39.007Z,5.12
2022-12-25T08:48:39.017Z,5.12
2022-12-25T08:49:39.042Z,5.14
2022-12-25T08:50:39.032Z,5.15
2022-12-25T08:51:38.968Z,5.14
2022-12-25T08:52:38.947Z,5.14
2022-12-25T08:53:38.943Z,5.15
2022-12-25T08:54:38.951Z,5.18
2022-12-25T08:55:38.945Z,5.21
2022-12-25T08:56:38.916Z,5.18
2022-12-25T08:57:38.918Z,5.20
2022-12-25T08:58:38.893Z,5.20
2022-12-25T08:59:38.872Z,5.20
2022-12-25T09:00:38.864Z,5.25
2022-12-25T09:01:39.046Z,5.26
2022-12-25T09:02:38.979Z,5.29
2022-12-25T09:03:38.943Z,5.32
2022-12-25T09:04:38.874Z,5.33
2022-12-25T09:05:38.832Z,5.33
2022-12-25T09:06:38.820Z,5.36
2022-12-25T09:07:38.858Z,5.39
2022-12-25T09:08:44.026Z,5.39
2022-12-25T09:09:38.783Z,5.41
2022-12-25T09:10:38.753Z,5.41
2022-12-25T09:11:38.748Z,5.44
2022-12-25T09:12:38.817Z,5.47
2022-12-25T09:13:38.749Z,5.47
2022-12-25T09:14:38.725Z,5.51
2022-12-25T09:15:38.863Z,5.53
2022-12-25T09:16:38.731Z,5.56
2022-12-25T09:17:38.824Z,5.57
2022-12-25T09:18:38.700Z,5.59
2022-12-25T09:19:38.722Z,5.64
2022-12-25T09:20:38.683Z,5.66
2022-12-25T09:21:38.630Z,5.71
2022-12-25T09:22:38.819Z,5.73
2022-12-25T09:23:38.668Z,5.75
2022-12-25T09:24:38.624Z,5.76
2022-12-25T09:25:38.638Z,5.79
2022-12-25T09:26:38.608Z,5.82
2022-12-25T09:27:38.652Z,5.82
2022-12-25T09:28:38.596Z,5.82
2022-12-25T09:29:38.555Z,5.84
2022-12-25T09:30:38.581Z,5.86
2022-12-25T09:31:38.536Z,5.89
2022-12-25T09:32:38.637Z,5.90
2022-12-25T09:33:38.558Z,5.93
2022-12-25T09:34:38.548Z,5.94
2022-12-25T09:35:38.537Z,5.98
2022-12-25T09:36:38.507Z,5.99
2022-12-25T09:37:38.509Z,6.02
2022-12-25T09:38:38.513Z,6.07
2022-12-25T09:39:45.885Z,6.11
2022-12-25T09:40:38.542Z,6.09
2022-12-25T09:41:38.482Z,6.14
2022-12-25T09:42:38.457Z,6.17
2022-12-25T09:43:38.466Z,6.20
2022-12-25T09:44:38.533Z,6.24
2022-12-25T09:45:38.422Z,6.26
2022-12-25T09:46:38.509Z,6.28
2022-12-25T09:47:38.399Z,6.28
2022-12-25T09:48:38.527Z,6.28
2022-12-25T09:49:38.374Z,6.30
2022-12-25T09:50:38.413Z,6.31
2022-12-25T09:51:38.355Z,6.33
2022-12-25T09:52:38.340Z,6.33
2022-12-25T09:53:38.342Z,6.31
2022-12-25T09:54:38.417Z,6.35
2022-12-25T09:55:38.295Z,6.36
2022-12-25T09:56:38.374Z,6.36
2022-12-25T09:57:38.281Z,6.38
2022-12-25T09:58:38.396Z,6.39
2022-12-25T09:59:38.296Z,6.41
2022-12-25T10:00:38.269Z,6.49
2022-12-25T10:01:38.325Z,6.51
2022-12-25T10:02:38.574Z,6.56
2022-12-25T10:03:38.404Z,6.59
2022-12-25T10:04:40.929Z,6.62
2022-12-25T10:05:38.200Z,6.64
2022-12-25T10:06:38.221Z,6.67
2022-12-25T10:07:38.327Z,6.70
2022-12-25T10:08:38.184Z,6.75
2022-12-25T10:09:38.292Z,6.78
2022-12-25T10:10:38.186Z,6.79
2022-12-25T10:11:38.153Z,6.84
2022-12-25T10:12:38.135Z,6.87
2022-12-25T10:13:38.125Z,6.89
2022-12-25T10:14:38.120Z,6.95
2022-12-25T10:15:45.038Z,6.97
2022-12-25T10:16:38.247Z,6.99
2022-12-25T10:17:38.131Z,7.02
2022-12-25T10:18:38.089Z,7.03
2022-12-25T10:19:38.047Z,7.03
2022-12-25T10:20:38.043Z,7.05
2022-12-25T10:21:38.039Z,7.05
2022-12-25T10:22:38.038Z,7.05
2022-12-25T10:23:38.015Z,7.05
2022-12-25T10:24:38.044Z,7.05
2022-12-25T10:25:38.021Z,7.06
2022-12-25T10:26:38.045Z,7.11
2022-12-25T10:27:38.018Z,7.14
2022-12-25T10:28:38.052Z,7.17
2022-12-25T10:29:37.950Z,7.23
2022-12-25T10:30:37.929Z,7.24
2022-12-25T10:31:37.999Z,7.28
2022-12-25T10:32:38.579Z,7.31
2022-12-25T10:33:37.963Z,7.32
2022-12-25T10:34:38.588Z,7.33
2022-12-25T10:35:37.917Z,7.35
2022-12-25T10:36:37.933Z,7.38
2022-12-25T10:37:37.887Z,7.43
2022-12-25T10:38:37.919Z,7.47
2022-12-25T10:39:42.414Z,7.47
2022-12-25T10:40:37.934Z,7.51
2022-12-25T10:41:37.861Z,7.53
2022-12-25T10:42:37.849Z,7.57
2022-12-25T10:43:37.811Z,7.60
2022-12-25T10:44:37.919Z,7.63
2022-12-25T10:45:37.811Z,7.69
2022-12-25T10:46:37.873Z,7.72
2022-12-25T10:47:37.766Z,7.76
2022-12-25T10:48:37.867Z,7.80
2022-12-25T10:49:37.772Z,7.85
2022-12-25T10:50:37.777Z,7.91
2022-12-25T10:51:37.753Z,7.95
2022-12-25T10:52:37.741Z,7.98
2022-12-25T10:53:37.741Z,8.01
2022-12-25T10:54:37.722Z,8.06
2022-12-25T10:55:37.670Z,8.08
2022-12-25T10:56:37.708Z,8.08
2022-12-25T10:57:37.760Z,8.12
2022-12-25T10:58:37.736Z,8.13
2022-12-25T10:59:37.751Z,8.10
2022-12-25T11:00:37.656Z,8.12
2022-12-25T11:01:37.733Z,8.13
2022-12-25T11:02:37.952Z,8.16
2022-12-25T11:03:37.677Z,8.16
2022-12-25T11:04:37.628Z,8.16
2022-12-25T11:05:37.605Z,8.19
2022-12-25T11:06:37.586Z,8.23
2022-12-25T11:07:37.588Z,8.20
2022-12-25T11:08:37.568Z,8.23
2022-12-25T11:09:37.572Z,8.24
2022-12-25T11:10:37.578Z,8.20
2022-12-25T11:11:37.590Z,8.20
2022-12-25T11:12:37.530Z,8.23
2022-12-25T11:13:37.499Z,8.24
2022-12-25T11:14:37.519Z,8.27
2022-12-25T11:15:37.512Z,8.27
2022-12-25T11:16:37.617Z,8.27
2022-12-25T11:17:37.474Z,8.28
2022-12-25T11:18:37.476Z,8.30
2022-12-25T11:19:37.443Z,8.31
2022-12-25T11:20:39.202Z,8.34
2022-12-25T11:21:37.517Z,8.33
2022-12-25T11:22:37.461Z,8.36
2022-12-25T11:23:37.424Z,8.34
2022-12-25T11:24:37.459Z,8.31
2022-12-25T11:25:37.424Z,8.33
2022-12-25T11:26:37.386Z,8.33
2022-12-25T11:27:37.394Z,8.31
2022-12-25T11:28:37.384Z,8.31
2022-12-25T11:29:37.361Z,8.33
2022-12-25T11:30:37.346Z,8.33
2022-12-25T11:31:37.367Z,8.31
2022-12-25T11:32:37.331Z,8.36
2022-12-25T11:33:37.342Z,8.36
2022-12-25T11:34:37.341Z,8.37
2022-12-25T11:35:37.286Z,8.41
2022-12-25T11:36:37.305Z,8.42
2022-12-25T11:37:37.273Z,8.42
2022-12-25T11:38:37.293Z,8.44
2022-12-25T11:39:37.265Z,8.45
2022-12-25T11:40:37.279Z,8.48
2022-12-25T11:41:37.285Z,8.46
2022-12-25T11:42:37.230Z,8.49
2022-12-25T11:43:37.230Z,8.48
2022-12-25T11:44:37.248Z,8.49
2022-12-25T11:45:37.257Z,8.51
2022-12-25T11:46:37.262Z,8.52
2022-12-25T11:47:37.201Z,8.52
2022-12-25T11:48:37.189Z,8.55
2022-12-25T11:49:37.207Z,8.55
2022-12-25T11:50:37.161Z,8.56
2022-12-25T11:51:37.141Z,8.56
2022-12-25T11:52:37.153Z,8.55
2022-12-25T11:53:37.175Z,8.55
2022-12-25T11:54:37.156Z,8.53
2022-12-25T11:55:37.115Z,8.55
2022-12-25T11:56:37.139Z,8.56
2022-12-25T11:57:37.075Z,8.58
2022-12-25T11:58:37.083Z,8.58
2022-12-25T11:59:37.044Z,8.61
2022-12-25T12:00:37.047Z,8.64
2022-12-25T12:01:37.137Z,8.66
2022-12-25T12:02:37.250Z,8.67
2022-12-25T12:03:37.027Z,8.70
2022-12-25T12:04:42.283Z,8.73
2022-12-25T12:05:36.983Z,8.73
2022-12-25T12:06:37.008Z,8.74
2022-12-25T12:07:36.982Z,8.73
2022-12-25T12:08:36.978Z,8.73
2022-12-25T12:09:36.969Z,8.74
2022-12-25T12:10:36.950Z,8.73
2022-12-25T12:11:36.935Z,8.73
2022-12-25T12:12:36.975Z,8.73
2022-12-25T12:13:36.913Z,8.73
2022-12-25T12:14:36.954Z,8.73
2022-12-25T12:15:36.886Z,8.74
2022-12-25T12:16:36.957Z,8.73
2022-12-25T12:17:36.856Z,8.73
2022-12-25T12:18:36.972Z,8.71
2022-12-25T12:19:36.839Z,8.73
2022-12-25T12:20:36.888Z,8.73
2022-12-25T12:21:36.833Z,8.74
2022-12-25T12:22:36.865Z,8.74
2022-12-25T12:23:36.807Z,8.74
2022-12-25T12:24:36.790Z,8.73
2022-12-25T12:25:36.848Z,8.73
2022-12-25T12:26:36.827Z,8.73
2022-12-25T12:27:36.778Z,8.73
2022-12-25T12:28:36.772Z,8.73
2022-12-25T12:29:36.744Z,8.71
2022-12-25T12:30:36.766Z,8.70
2022-12-25T12:31:36.808Z,8.71
2022-12-25T12:32:36.757Z,8.70
2022-12-25T12:33:36.744Z,8.70
2022-12-25T12:34:36.720Z,8.70
2022-12-25T12:35:36.690Z,8.70
2022-12-25T12:36:37.071Z,8.71
2022-12-25T12:37:36.669Z,8.71
2022-12-25T12:38:36.657Z,8.71
2022-12-25T12:39:36.651Z,8.73
2022-12-25T12:40:36.693Z,8.74
2022-12-25T12:41:36.663Z,8.74
2022-12-25T12:42:36.648Z,8.76
2022-12-25T12:43:36.641Z,8.76
2022-12-25T12:44:36.639Z,8.79
2022-12-25T12:45:36.686Z,8.81
2022-12-25T12:46:36.695Z,8.84
2022-12-25T12:47:36.603Z,8.84
2022-12-25T12:48:36.559Z,8.85
2022-12-25T12:49:36.712Z,8.85
2022-12-25T12:50:36.570Z,8.87
2022-12-25T12:51:36.511Z,8.87
2022-12-25T12:52:36.586Z,8.88
2022-12-25T12:53:36.550Z,8.89
2022-12-25T12:54:36.511Z,8.88
2022-12-25T12:55:36.490Z,8.88
2022-12-25T12:56:36.493Z,8.89
2022-12-25T12:57:36.468Z,8.91
2022-12-25T12:58:36.483Z,8.89
2022-12-25T12:59:36.480Z,8.88
2022-12-25T13:00:36.442Z,8.91
2022-12-25T13:01:36.539Z,8.88
2022-12-25T13:02:36.678Z,8.89
2022-12-25T13:03:36.391Z,8.89
2022-12-25T13:04:36.403Z,8.88
2022-12-25T13:05:36.458Z,8.88
2022-12-25T13:06:36.536Z,8.88
2022-12-25T13:07:36.395Z,8.88
2022-12-25T13:08:36.370Z,8.87
2022-12-25T13:09:36.348Z,8.88
2022-12-25T13:10:36.386Z,8.87
2022-12-25T13:11:36.377Z,8.88
2022-12-25T13:12:36.352Z,8.87
2022-12-25T13:13:36.308Z,8.89
2022-12-25T13:14:36.328Z,8.89
2022-12-25T13:15:36.325Z,8.89
2022-12-25T13:16:36.350Z,8.89
2022-12-25T13:17:36.266Z,8.89
2022-12-25T13:18:36.289Z,8.89